createdAt,value
2022-08-14T00:02:01.504Z,98148.66
2022-08-14T00:04:35.218Z,98150.75
2022-08-14T00:07:10.739Z,98151.53
2022-08-14T00:09:55.144Z,98150.09
2022-08-14T00:12:33.117Z,98146.22
2022-08-14T00:15:21.872Z,98152.34
2022-08-14T00:17:53.654Z,98147.16
2022-08-14T00:20:30.744Z,98142.22
2022-08-14T00:23:16.506Z,98144.97
2022-08-14T00:25:53.926Z,98143.41
2022-08-14T00:28:32.578Z,98144.34
2022-08-14T00:31:00.267Z,98142.94
2022-08-14T00:33:50.721Z,98146.84
2022-08-14T00:36:46.956Z,98146.22
2022-08-14T00:39:04.191Z,98148.94
2022-08-14T00:41:33.857Z,98149.59
2022-08-14T00:44:01.488Z,98146.38
2022-08-14T00:46:32.640Z,98143.81
2022-08-14T00:49:00.909Z,98146.56
2022-08-14T00:51:37.947Z,98148.50
2022-08-14T00:54:17.049Z,98134.44
2022-08-14T00:56:55.504Z,98137.19
2022-08-14T00:59:28.761Z,98136.38
2022-08-14T01:01:58.536Z,98140.87
2022-08-14T01:04:52.024Z,98136.69
2022-08-14T01:07:21.283Z,98136.97
2022-08-14T01:09:56.496Z,98138.44
2022-08-14T01:12:26.927Z,98140.19
2022-08-14T01:15:02.121Z,98135.66
2022-08-14T01:17:52.113Z,98138.09
2022-08-14T01:20:40.757Z,98135.22
2022-08-14T01:23:16.613Z,98129.56
2022-08-14T01:25:51.518Z,98132.31
2022-08-14T01:28:46.230Z,98132.94
2022-08-14T01:31:12.532Z,98132.19
2022-08-14T01:33:59.206Z,98132.88
2022-08-14T01:36:36.941Z,98134.31
2022-08-14T01:39:13.008Z,98134.81
2022-08-14T01:41:42.306Z,98134.00
2022-08-14T01:44:33.235Z,98137.72
2022-08-14T01:47:05.844Z,98129.31
2022-08-14T01:49:35.506Z,98129.00
2022-08-14T01:52:08.794Z,98123.03
2022-08-14T01:54:40.177Z,98133.78
2022-08-14T01:57:11.592Z,98126.91
2022-08-14T01:59:43.770Z,98118.81
2022-08-14T02:02:19.112Z,98112.66
2022-08-14T02:04:56.731Z,98115.25
2022-08-14T02:07:34.368Z,98119.97
2022-08-14T02:10:15.961Z,98119.97
2022-08-14T02:12:54.038Z,98120.78
2022-08-14T02:15:24.955Z,98123.38
2022-08-14T02:17:52.505Z,98129.81
2022-08-14T02:20:23.776Z,98112.84
2022-08-14T02:22:55.055Z,98125.13
2022-08-14T02:25:22.801Z,98116.41
2022-08-14T02:28:22.753Z,98114.28
2022-08-14T02:30:38.358Z,98116.72
2022-08-14T02:33:07.377Z,98122.50
2022-08-14T02:35:40.688Z,98113.47
2022-08-14T02:38:11.460Z,98115.56
2022-08-14T02:40:39.295Z,98115.81
2022-08-14T02:43:07.952Z,98113.31
2022-08-14T02:45:38.912Z,98114.44
2022-08-14T02:49:02.080Z,98121.56
2022-08-14T02:51:02.703Z,98109.44
2022-08-14T02:53:31.528Z,98110.63
2022-08-14T02:56:02.524Z,98119.13
2022-08-14T02:58:31.251Z,98110.37
2022-08-14T03:00:59.626Z,98113.94
2022-08-14T03:03:28.317Z,98115.56
2022-08-14T03:06:00.301Z,98110.22
2022-08-14T03:08:31.861Z,98112.91
2022-08-14T03:11:07.699Z,98112.81
2022-08-14T03:13:47.432Z,98113.31
2022-08-14T03:16:20.319Z,98117.66
2022-08-14T03:19:00.982Z,98117.66
2022-08-14T03:21:30.181Z,98113.13
2022-08-14T03:24:16.354Z,98110.22
2022-08-14T03:26:49.900Z,98104.56
2022-08-14T03:29:26.183Z,98103.37
2022-08-14T03:31:54.078Z,98113.88
2022-08-14T03:34:24.261Z,98103.66
2022-08-14T03:37:51.282Z,98112.19
2022-08-14T03:39:53.017Z,98115.81
2022-08-14T03:42:24.222Z,98113.38
2022-08-14T03:45:25.439Z,98108.22
2022-08-14T03:47:46.361Z,98104.94
2022-08-14T03:50:28.010Z,98114.19
2022-08-14T03:53:03.276Z,98118.69
2022-08-14T03:55:30.931Z,98116.63
2022-08-14T03:58:00.583Z,98115.50
2022-08-14T04:00:42.809Z,98113.88
2022-08-14T04:03:18.014Z,98113.13
2022-08-14T04:05:49.040Z,98113.44
2022-08-14T04:08:29.087Z,98113.41
2022-08-14T04:11:01.573Z,98113.88
2022-08-14T04:13:31.509Z,98108.88
2022-08-14T04:16:05.094Z,98115.19
2022-08-14T04:18:34.689Z,98102.94
2022-08-14T04:21:01.702Z,98112.44
2022-08-14T04:23:33.501Z,98111.50
2022-08-14T04:26:08.241Z,98111.50
2022-08-14T04:29:07.743Z,98112.31
2022-08-14T04:32:57.794Z,98108.56
2022-08-14T04:34:20.642Z,98112.50
2022-08-14T04:37:09.673Z,98112.66
2022-08-14T04:39:57.211Z,98111.72
2022-08-14T04:42:47.553Z,98114.81
2022-08-14T04:45:23.911Z,98119.47
2022-08-14T04:48:10.939Z,98116.78
2022-08-14T04:50:44.456Z,98111.59
2022-08-14T04:53:23.239Z,98113.22
2022-08-14T04:55:53.967Z,98117.59
2022-08-14T04:58:32.400Z,98122.59
2022-08-14T05:01:02.206Z,98116.31
2022-08-14T05:03:33.424Z,98117.63
2022-08-14T05:06:02.472Z,98118.41
2022-08-14T05:08:56.657Z,98119.56
2022-08-14T05:11:19.996Z,98117.47
2022-08-14T05:14:16.649Z,98121.72
2022-08-14T05:16:34.032Z,98124.75
2022-08-14T05:19:18.508Z,98112.16
2022-08-14T05:21:56.731Z,98114.12
2022-08-14T05:24:25.478Z,98100.91
2022-08-14T05:26:52.391Z,98101.38
2022-08-14T05:29:20.617Z,98097.81
2022-08-14T05:31:47.674Z,98098.13
2022-08-14T05:34:14.563Z,98098.78
2022-08-14T05:36:43.058Z,98097.63
2022-08-14T05:39:17.689Z,98093.56
2022-08-14T05:41:53.698Z,98092.12
2022-08-14T05:44:21.267Z,98097.63
2022-08-14T05:46:49.074Z,98093.78
2022-08-14T05:49:16.606Z,98095.75
2022-08-14T05:51:46.903Z,98095.91
2022-08-14T05:54:27.172Z,98095.69
2022-08-14T05:56:55.242Z,98081.47
2022-08-14T05:59:36.784Z,98091.66
2022-08-14T06:02:07.288Z,98093.81
2022-08-14T06:04:34.188Z,98110.84
2022-08-14T06:07:01.064Z,98093.44
2022-08-14T06:09:29.065Z,98097.22
2022-08-14T06:12:02.575Z,98089.44
2022-08-14T06:14:31.347Z,98086.97
2022-08-14T06:16:58.762Z,98086.03
2022-08-14T06:19:26.587Z,98092.47
2022-08-14T06:21:59.116Z,98090.38
2022-08-14T06:24:27.403Z,98093.38
2022-08-14T06:27:04.368Z,98092.50
2022-08-14T06:29:35.081Z,98087.34
2022-08-14T06:32:37.596Z,98100.28
2022-08-14T06:35:03.292Z,98100.16
2022-08-14T06:37:47.682Z,98089.34
2022-08-14T06:40:26.226Z,98086.91
2022-08-14T06:43:06.980Z,98087.75
2022-08-14T06:45:36.320Z,98086.22
2022-08-14T06:48:06.003Z,98076.88
2022-08-14T06:50:33.769Z,98086.69
2022-08-14T06:53:01.178Z,98085.44
2022-08-14T06:55:29.428Z,98093.25
2022-08-14T06:57:57.616Z,98086.31
2022-08-14T07:00:30.776Z,98083.78
2022-08-14T07:03:19.184Z,98085.06
2022-08-14T07:05:57.843Z,98097.88
2022-08-14T07:08:29.838Z,98102.50
2022-08-14T07:11:01.209Z,98105.25
2022-08-14T07:13:30.674Z,98096.59
2022-08-14T07:16:00.596Z,98098.53
2022-08-14T07:18:30.352Z,98102.25
2022-08-14T07:20:59.644Z,98116.44
2022-08-14T07:23:27.625Z,98116.78
2022-08-14T07:25:58.495Z,98120.25
2022-08-14T07:28:43.232Z,98114.12
2022-08-14T07:31:12.636Z,98117.47
2022-08-14T07:33:50.788Z,98117.47
2022-08-14T07:36:27.732Z,98123.38
2022-08-14T07:39:02.918Z,98115.19
2022-08-14T07:41:35.583Z,98114.94
2022-08-14T07:44:32.672Z,98125.34
2022-08-14T07:46:50.782Z,98124.84
2022-08-14T07:49:19.998Z,98132.22
2022-08-14T07:51:49.228Z,98134.13
2022-08-14T07:54:23.420Z,98127.72
2022-08-14T07:56:59.950Z,98125.16
2022-08-14T07:59:42.649Z,98129.09
2022-08-14T08:02:19.558Z,98120.16
2022-08-14T08:04:59.406Z,98130.69
2022-08-14T08:07:31.472Z,98133.09
2022-08-14T08:10:02.863Z,98141.78
2022-08-14T08:12:32.419Z,98136.84
2022-08-14T08:15:07.752Z,98131.97
2022-08-14T08:17:53.382Z,98135.03
2022-08-14T08:20:27.389Z,98131.16
2022-08-14T08:23:00.481Z,98124.34
2022-08-14T08:25:32.498Z,98130.16
2022-08-14T08:28:19.838Z,98130.84
2022-08-14T08:30:56.342Z,98133.03
2022-08-14T08:33:26.882Z,98134.78
2022-08-14T08:36:06.041Z,98141.28
2022-08-14T08:39:15.335Z,98128.88
2022-08-14T08:41:21.968Z,98135.72
2022-08-14T08:43:51.081Z,98137.22
2022-08-14T08:46:23.508Z,98138.88
2022-08-14T08:48:54.085Z,98133.13
2022-08-14T08:51:30.518Z,98150.94
2022-08-14T08:53:58.228Z,98138.44
2022-08-14T08:56:40.488Z,98141.31
2022-08-14T08:59:27.297Z,98133.28
2022-08-14T09:02:05.395Z,98132.84
2022-08-14T09:04:45.517Z,98132.47
2022-08-14T09:07:26.775Z,98139.97
2022-08-14T09:09:59.313Z,98138.06
2022-08-14T09:12:32.864Z,98132.00
2022-08-14T09:15:12.168Z,98128.53
2022-08-14T09:17:41.604Z,98135.19
2022-08-14T09:20:11.630Z,98133.28
2022-08-14T09:22:47.594Z,98135.34
2022-08-14T09:25:19.594Z,98120.00
2022-08-14T09:27:47.379Z,98134.13
2022-08-14T09:30:30.926Z,98121.34
2022-08-14T09:33:17.328Z,98127.56
2022-08-14T09:35:56.766Z,98123.44
2022-08-14T09:38:51.537Z,98119.66
2022-08-14T09:42:21.826Z,98121.25
2022-08-14T09:44:55.379Z,98122.91
2022-08-14T09:47:47.331Z,98123.56
2022-08-14T09:50:46.040Z,98112.00
2022-08-14T09:53:18.566Z,98105.81
2022-08-14T09:55:58.537Z,98095.44
2022-08-14T09:58:37.863Z,98102.66
2022-08-14T10:01:13.073Z,98092.78
2022-08-14T10:03:52.407Z,98086.22
2022-08-14T10:06:28.255Z,98081.81
2022-08-14T10:09:03.034Z,98077.12
2022-08-14T10:11:36.661Z,98085.47
2022-08-14T10:14:35.420Z,98077.72
2022-08-14T10:17:06.330Z,98082.13
2022-08-14T10:19:46.937Z,98074.72
2022-08-14T10:23:12.678Z,98071.16
2022-08-14T10:25:12.300Z,98066.69
2022-08-14T10:27:39.206Z,98063.25
2022-08-14T10:30:22.386Z,98060.22
2022-08-14T10:32:51.492Z,98063.13
2022-08-14T10:35:21.247Z,98053.47
2022-08-14T10:37:51.777Z,98051.72
2022-08-14T10:40:43.774Z,98049.75
2022-08-14T10:43:26.238Z,98037.56
2022-08-14T10:46:03.937Z,98045.94
2022-08-14T10:49:04.307Z,98061.06
2022-08-14T10:51:41.882Z,98054.00
2022-08-14T10:54:17.114Z,98048.19
2022-08-14T10:57:21.946Z,98041.22
2022-08-14T10:59:50.667Z,98044.00
2022-08-14T11:02:36.084Z,98040.63
2022-08-14T11:05:18.657Z,98046.44
2022-08-14T11:07:55.307Z,98043.41
2022-08-14T11:10:27.800Z,98042.66
2022-08-14T11:12:57.187Z,98039.00
2022-08-14T11:15:29.816Z,98023.12
2022-08-14T11:18:01.303Z,98034.31
2022-08-14T11:20:31.698Z,98034.25
2022-08-14T11:23:01.104Z,98022.56
2022-08-14T11:25:43.413Z,98023.16
2022-08-14T11:28:14.661Z,98028.94
2022-08-14T11:30:53.477Z,98013.59
2022-08-14T11:33:31.359Z,98020.31
2022-08-14T11:36:01.705Z,98023.97
2022-08-14T11:38:39.533Z,98019.69
2022-08-14T11:41:14.256Z,98020.53
2022-08-14T11:43:58.473Z,98013.78
2022-08-14T11:46:30.370Z,98010.25
2022-08-14T11:49:06.556Z,98011.34
2022-08-14T11:51:36.462Z,98006.59
2022-08-14T11:54:20.513Z,98006.47
2022-08-14T11:57:01.036Z,98002.44
2022-08-14T11:59:32.920Z,98008.59
2022-08-14T12:03:01.092Z,98001.41
2022-08-14T12:05:09.143Z,97997.16
2022-08-14T12:07:36.938Z,97992.56
2022-08-14T12:10:26.924Z,97990.88
2022-08-14T12:13:17.347Z,98001.06
2022-08-14T12:15:57.429Z,97999.25
2022-08-14T12:18:36.472Z,97990.69
2022-08-14T12:21:15.722Z,97993.47
2022-08-14T12:24:04.561Z,97992.19
2022-08-14T12:26:40.998Z,97988.63
2022-08-14T12:29:12.889Z,97987.72
2022-08-14T12:31:44.564Z,97979.84
2022-08-14T12:34:20.370Z,97973.09
2022-08-14T12:36:49.889Z,97969.12
2022-08-14T12:39:24.189Z,97965.34
2022-08-14T12:42:04.991Z,97961.22
2022-08-14T12:44:38.224Z,97962.19
2022-08-14T12:47:13.260Z,97955.38
2022-08-14T12:49:58.432Z,97954.56
2022-08-14T12:52:41.665Z,97959.59
2022-08-14T12:55:21.564Z,97955.78
2022-08-14T12:57:53.192Z,97954.69
2022-08-14T13:00:25.570Z,97957.94
2022-08-14T13:02:56.518Z,97950.59
2022-08-14T13:05:32.296Z,97946.62
2022-08-14T13:08:04.770Z,97943.75
2022-08-14T13:10:47.131Z,97939.97
2022-08-14T13:13:20.602Z,97942.03
2022-08-14T13:15:55.942Z,97940.44
2022-08-14T13:18:28.163Z,97940.84
2022-08-14T13:21:00.954Z,97930.41
2022-08-14T13:23:32.986Z,97932.38
2022-08-14T13:26:03.923Z,97925.97
2022-08-14T13:28:34.566Z,97927.09
2022-08-14T13:31:11.903Z,97916.69
2022-08-14T13:33:40.469Z,97913.22
2022-08-14T13:36:09.400Z,97913.69
2022-08-14T13:38:37.196Z,97901.44
2022-08-14T13:41:04.551Z,97904.25
2022-08-14T13:43:36.591Z,97902.09
2022-08-14T13:46:04.123Z,97903.06
2022-08-14T13:48:33.239Z,97899.91
2022-08-14T13:51:07.916Z,97892.78
2022-08-14T13:54:07.014Z,97899.06
2022-08-14T13:56:39.088Z,97900.62
2022-08-14T13:59:06.826Z,97898.19
2022-08-14T14:01:39.175Z,97883.22
2022-08-14T14:04:19.058Z,97875.88
2022-08-14T14:06:48.591Z,97887.84
2022-08-14T14:09:20.912Z,97883.09
2022-08-14T14:11:53.015Z,97881.44
2022-08-14T14:14:44.988Z,97893.56
2022-08-14T14:17:12.846Z,97878.12
2022-08-14T14:19:43.419Z,97878.28
2022-08-14T14:22:11.542Z,97879.38
2022-08-14T14:24:58.524Z,97884.47
2022-08-14T14:27:44.218Z,97882.41
2022-08-14T14:30:46.611Z,97878.16
2022-08-14T14:33:04.379Z,97875.09
2022-08-14T14:35:34.635Z,97880.34
2022-08-14T14:38:08.856Z,97877.06
2022-08-14T14:40:53.144Z,97872.72
2022-08-14T14:43:25.146Z,97874.69
2022-08-14T14:45:54.938Z,97868.59
2022-08-14T14:48:27.068Z,97862.44
2022-08-14T14:50:59.481Z,97864.44
2022-08-14T14:53:27.374Z,97864.16
2022-08-14T14:56:52.037Z,97868.66
2022-08-14T14:58:46.364Z,97862.00
2022-08-14T15:01:15.766Z,97853.53
2022-08-14T15:03:44.089Z,97858.22
2022-08-14T15:06:12.707Z,97846.28
2022-08-14T15:08:56.586Z,97848.31
2022-08-14T15:11:30.108Z,97848.31
2022-08-14T15:13:57.961Z,97850.81
2022-08-14T15:16:24.995Z,97860.00
2022-08-14T15:18:52.841Z,97856.00
2022-08-14T15:21:20.123Z,97857.22
2022-08-14T15:23:48.863Z,97861.13
2022-08-14T15:26:23.684Z,97872.47
2022-08-14T15:29:03.286Z,97865.38
2022-08-14T15:31:34.930Z,97861.78
2022-08-14T15:34:45.654Z,97857.03
2022-08-14T15:37:04.602Z,97862.59
2022-08-14T15:39:35.747Z,97867.66
2022-08-14T15:42:14.702Z,97867.87
2022-08-14T15:44:57.451Z,97862.81
2022-08-14T15:47:27.967Z,97852.03
2022-08-14T15:50:00.221Z,97850.78
2022-08-14T15:52:35.070Z,97845.31
2022-08-14T15:55:09.432Z,97847.66
2022-08-14T15:57:37.413Z,97844.59
2022-08-14T16:00:41.715Z,97845.03
2022-08-14T16:03:12.777Z,97844.28
2022-08-14T16:05:43.677Z,97843.34
2022-08-14T16:08:26.853Z,97839.38
2022-08-14T16:10:57.806Z,97836.37
2022-08-14T16:13:41.675Z,97834.75
2022-08-14T16:16:34.655Z,97834.03
2022-08-14T16:19:19.538Z,97833.00
2022-08-14T16:22:01.683Z,97828.00
2022-08-14T16:25:02.603Z,97833.50
2022-08-14T16:27:39.061Z,97837.03
2022-08-14T16:30:20.872Z,97829.41
2022-08-14T16:32:59.290Z,97827.13
2022-08-14T16:35:42.508Z,97831.00
2022-08-14T16:38:44.782Z,97834.13
2022-08-14T16:41:18.215Z,97840.25
2022-08-14T16:43:53.032Z,97841.81
2022-08-14T16:46:22.296Z,97837.47
2022-08-14T16:48:55.061Z,97843.09
2022-08-14T16:51:24.520Z,97835.53
2022-08-14T16:53:52.099Z,97831.59
2022-08-14T16:56:24.171Z,97832.12
2022-08-14T16:59:17.080Z,97829.28
2022-08-14T17:01:46.085Z,97825.28
2022-08-14T17:04:24.383Z,97824.91
2022-08-14T17:06:56.589Z,97813.81
2022-08-14T17:09:34.637Z,97817.53
2022-08-14T17:12:09.508Z,97820.41
2022-08-14T17:14:59.446Z,97814.31
2022-08-14T17:17:33.292Z,97816.81
2022-08-14T17:20:39.684Z,97822.91
2022-08-14T17:22:49.586Z,97822.97
2022-08-14T17:28:51.835Z,97825.44
2022-08-14T17:31:02.787Z,97814.09
2022-08-14T17:33:40.702Z,97817.50
2022-08-14T17:36:24.253Z,97823.63
2022-08-14T17:39:06.718Z,97822.81
2022-08-14T17:41:47.828Z,97824.84
2022-08-14T17:44:33.834Z,97814.72
2022-08-14T17:47:14.623Z,97812.56
2022-08-14T17:49:51.802Z,97815.28
2022-08-14T17:52:34.137Z,97809.03
2022-08-14T17:55:06.558Z,97799.78
2022-08-14T17:57:35.176Z,97808.75
2022-08-14T18:00:11.685Z,97802.84
2022-08-14T18:02:40.476Z,97811.03
2022-08-14T18:05:23.720Z,97805.75
2022-08-14T18:08:33.895Z,97797.81
2022-08-14T18:10:56.793Z,97800.09
2022-08-14T18:13:50.208Z,97801.22
2022-08-14T18:16:19.620Z,97810.41
2022-08-14T18:18:48.675Z,97806.28
2022-08-14T18:21:41.153Z,97805.69
2022-08-14T18:24:03.847Z,97804.47
2022-08-14T18:26:48.790Z,97802.09
2022-08-14T18:29:17.468Z,97807.38
2022-08-14T18:31:45.724Z,97816.16
2022-08-14T18:34:32.382Z,97811.41
2022-08-14T18:37:15.302Z,97821.22
2022-08-14T18:40:03.473Z,97829.88
2022-08-14T18:42:34.950Z,97837.88
2022-08-14T18:45:12.981Z,97835.50
2022-08-14T18:50:32.392Z,97829.25
2022-08-14T18:53:09.197Z,97841.59
2022-08-14T18:55:53.016Z,97840.34
2022-08-14T18:58:31.059Z,97836.97
2022-08-14T19:01:02.487Z,97847.66
2022-08-14T19:03:34.401Z,97839.38
2022-08-14T19:06:09.760Z,97844.34
2022-08-14T19:08:45.655Z,97854.44
2022-08-14T19:11:37.638Z,97854.56
2022-08-14T19:14:06.509Z,97848.81
2022-08-14T19:16:43.219Z,97857.22
2022-08-14T19:19:20.622Z,97860.94
2022-08-14T19:21:58.791Z,97854.25
2022-08-14T19:24:44.058Z,97851.25
2022-08-14T19:27:24.637Z,97850.13
2022-08-14T19:30:19.912Z,97851.75
2022-08-14T19:32:55.772Z,97853.41
2022-08-14T19:35:55.468Z,97844.66
2022-08-14T19:41:01.439Z,97848.56
2022-08-14T19:43:52.260Z,97854.22
2022-08-14T19:46:37.880Z,97852.50
2022-08-14T19:49:07.238Z,97853.63
2022-08-14T19:51:48.852Z,97855.47
2022-08-14T19:54:16.422Z,97850.31
2022-08-14T19:56:45.633Z,97848.22
2022-08-14T19:59:18.707Z,97850.75
2022-08-14T20:01:50.564Z,97845.00
2022-08-14T20:04:46.433Z,97847.41
2022-08-14T20:07:27.591Z,97843.63
2022-08-14T20:11:09.173Z,97838.56
2022-08-14T20:13:32.001Z,97841.56
2022-08-14T20:16:12.023Z,97841.44
2022-08-14T20:18:50.727Z,97833.84
2022-08-14T20:21:18.642Z,97833.16
2022-08-14T20:23:48.060Z,97829.81
2022-08-14T20:26:31.398Z,97837.41
2022-08-14T20:29:05.170Z,97829.66
2022-08-14T20:31:37.446Z,97829.34
2022-08-14T20:34:18.984Z,97833.84
2022-08-14T20:37:10.004Z,97832.00
2022-08-14T20:39:54.863Z,97826.00
2022-08-14T20:42:43.520Z,97826.72
2022-08-14T20:45:27.552Z,97827.41
2022-08-14T20:48:00.993Z,97831.00
2022-08-14T20:50:29.909Z,97833.75
2022-08-14T20:52:58.382Z,97836.50
2022-08-14T20:55:32.551Z,97831.06
2022-08-14T20:58:09.992Z,97832.22
2022-08-14T21:01:13.269Z,97829.00
2022-08-14T21:03:57.066Z,97824.88
2022-08-14T21:07:22.917Z,97828.31
2022-08-14T21:10:03.433Z,97832.19
2022-08-14T21:12:34.817Z,97834.44
2022-08-14T21:15:00.997Z,97842.59
2022-08-14T21:17:29.706Z,97837.00
2022-08-14T21:19:56.836Z,97835.97
2022-08-14T21:22:25.575Z,97838.00
2022-08-14T21:25:01.618Z,97842.88
2022-08-14T21:27:29.187Z,97833.44
2022-08-14T21:30:08.722Z,97837.13
2022-08-14T21:32:50.174Z,97818.63
2022-08-14T21:35:26.011Z,97823.78
2022-08-14T21:37:53.937Z,97825.84
2022-08-14T21:40:41.181Z,97821.78
2022-08-14T21:43:18.258Z,97831.69
2022-08-14T21:45:53.154Z,97824.09
2022-08-14T21:48:21.644Z,97819.81
2022-08-14T21:51:00.305Z,97829.94
2022-08-14T21:53:32.492Z,97836.03
2022-08-14T21:55:59.511Z,97824.75
2022-08-14T21:58:54.406Z,97823.13
2022-08-14T22:01:19.380Z,97824.28
2022-08-14T22:03:54.570Z,97826.38
2022-08-14T22:06:29.102Z,97825.12
2022-08-14T22:08:59.473Z,97821.78
2022-08-14T22:11:28.392Z,97825.03
2022-08-14T22:14:02.150Z,97816.97
2022-08-14T22:17:00.000Z,97821.44
2022-08-14T22:19:54.094Z,97822.06
2022-08-14T22:22:17.546Z,97812.84
2022-08-14T22:24:54.095Z,97809.12
2022-08-14T22:27:32.118Z,97808.59
2022-08-14T22:30:01.122Z,97810.50
2022-08-14T22:32:35.149Z,97813.91
2022-08-14T22:35:04.976Z,97808.38
2022-08-14T22:37:39.536Z,97806.81
2022-08-14T22:40:54.073Z,97801.31
2022-08-14T22:43:08.063Z,97793.72
2022-08-14T22:45:37.823Z,97798.75
2022-08-14T22:48:11.169Z,97797.16
2022-08-14T22:50:49.012Z,97799.91
2022-08-14T22:53:21.194Z,97791.97
2022-08-14T22:55:52.145Z,97796.53
2022-08-14T22:58:30.710Z,97796.88
2022-08-14T23:01:05.452Z,97781.00
2022-08-14T23:03:36.250Z,97787.59
2022-08-14T23:07:02.808Z,97789.06
2022-08-14T23:08:59.171Z,97783.69
2022-08-14T23:11:29.353Z,97786.12
2022-08-14T23:13:56.298Z,97783.28
2022-08-14T23:16:28.324Z,97780.50
2022-08-14T23:18:55.285Z,97779.91
2022-08-14T23:21:24.355Z,97781.88
2022-08-14T23:23:55.247Z,97789.97
2022-08-14T23:26:49.571Z,97777.53
2022-08-14T23:29:13.511Z,97776.81
2022-08-14T23:31:43.157Z,97771.19
2022-08-14T23:34:20.351Z,97771.06
2022-08-14T23:36:53.376Z,97771.62
2022-08-14T23:39:29.772Z,97774.97
2022-08-14T23:42:04.456Z,97773.19
2022-08-14T23:44:35.157Z,97765.59
2022-08-14T23:47:10.565Z,97759.75
2022-08-14T23:49:59.844Z,97747.22
2022-08-14T23:52:50.216Z,97745.63
2022-08-14T23:55:14.935Z,97740.19
2022-08-14T23:57:43.863Z,97742.59
